Time;durP1;ratioP1;P1;durP2;ratioP2;P2;SDS_P1;SDS_P2;PMS_P1;PMS_P2;Temp;Humidity;BMP_temperature;BMP_pressure;BME280_temperature;BME280_humidity;BME280_pressure;Samples;Min_cycle;Max_cycle;Signal;HPM_P1;HPM_P2
2022/11/05 00:10:28;;;;;;;2.90;1.10;;;;;;;4.95;100.00;92687.69;2128481;27;20050;-71
2022/11/05 00:16:51;;;;;;;3.28;1.40;;;;;;;4.88;100.00;92687.78;2119157;27;20043;-71
2022/11/05 00:17:52;;;;;;;2.35;1.60;;;;;;;4.85;100.00;92680.59;2125179;27;20031;-71
2022/11/05 00:19:05;;;;;;;2.05;1.58;;;;;;;4.91;100.00;92686.97;2131289;27;20611;-72
2022/11/05 00:20:07;;;;;;;1.60;1.50;;;;;;;4.93;100.00;92691.91;2130449;27;20025;-72
2022/11/05 00:25:12;;;;;;;2.80;1.50;;;;;;;4.88;100.00;92687.03;2131407;27;20034;-71
2022/11/05 00:25:15;;;;;;;1.33;1.23;;;;;;;4.96;100.00;92701.69;2131200;27;20125;-71
2022/11/05 00:26:16;;;;;;;2.03;1.33;;;;;;;4.90;100.00;92693.41;2127403;27;20549;-71
2022/11/05 00:27:17;;;;;;;1.48;1.33;;;;;;;5.03;100.00;92696.34;2131185;27;20023;-71
2022/11/05 00:28:18;;;;;;;1.40;1.27;;;;;;;5.07;100.00;92697.06;2131121;27;20082;-71
2022/11/05 00:29:19;;;;;;;4.38;1.42;;;;;;;5.29;100.00;92693.09;2131189;27;20054;-71
2022/11/05 00:30:24;;;;;;;2.88;1.20;;;;;;;5.19;100.00;92687.91;2131325;27;20050;-71
2022/11/05 00:31:25;;;;;;;1.40;1.30;;;;;;;5.12;100.00;92687.97;2130696;27;20030;-71
2022/11/05 00:32:26;;;;;;;2.05;1.20;;;;;;;5.02;100.00;92690.31;2130845;27;20041;-71
2022/11/05 00:33:27;;;;;;;3.25;1.30;;;;;;;5.02;100.00;92697.50;2130820;27;20031;-70
2022/11/05 00:34:29;;;;;;;1.40;1.30;;;;;;;5.02;100.00;92692.19;2130880;27;20491;-70
2022/11/05 00:35:30;;;;;;;1.73;1.40;;;;;;;5.00;100.00;92697.91;2130654;27;20426;-71
2022/11/05 00:36:31;;;;;;;3.55;1.58;;;;;;;4.99;100.00;92693.72;2130293;27;20023;-71
2022/11/05 00:37:32;;;;;;;2.15;1.38;;;;;;;5.20;100.00;92697.34;2130197;27;20043;-71
2022/11/05 00:38:34;;;;;;;1.30;1.20;;;;;;;5.10;100.00;92698.97;2121965;27;20055;-70
2022/11/05 00:39:35;;;;;;;1.30;1.13;;;;;;;5.02;100.00;92692.94;2122117;27;20026;-70
2022/11/05 00:40:36;;;;;;;1.50;1.40;;;;;;;5.01;100.00;92698.66;2131400;27;20019;-70
2022/11/05 00:41:37;;;;;;;2.45;1.30;;;;;;;4.96;100.00;92704.34;2130573;27;20034;-71
2022/11/05 00:45:20;;;;;;;1.23;1.13;;;;;;;4.91;100.00;92700.22;2128547;27;20119;-71
2022/11/05 00:46:22;;;;;;;2.20;1.00;;;;;;;4.95;100.00;92695.66;2131163;27;20109;-70
2022/11/05 00:50:02;;;;;;;1.30;1.05;;;;;;;5.01;100.00;92706.59;2131004;27;20035;-69
2022/11/05 00:51:03;;;;;;;1.30;1.20;;;;;;;5.07;100.00;92697.06;2130720;27;20072;-70
2022/11/05 00:53:24;;;;;;;1.80;1.33;;;;;;;4.97;100.00;92698.66;2123592;27;20538;-70
2022/11/05 00:54:25;;;;;;;2.72;1.20;;;;;;;4.95;100.00;92698.28;2126398;27;20030;-70
2022/11/05 00:55:32;;;;;;;1.00;1.00;;;;;;;4.90;100.00;92704.00;2131188;27;20030;-70
2022/11/05 00:56:33;;;;;;;1.90;1.10;;;;;;;5.02;100.00;92708.09;2130525;27;20160;-70
2022/11/05 00:57:34;;;;;;;1.88;1.30;;;;;;;5.04;100.00;92703.16;2129197;27;20505;-70
2022/11/05 00:58:35;;;;;;;1.67;1.45;;;;;;;5.00;100.00;92713.78;2130804;27;20093;-71
2022/11/05 00:59:37;;;;;;;1.50;1.20;;;;;;;4.96;100.00;92707.00;2131177;27;20033;-71
2022/11/05 01:00:42;;;;;;;2.00;1.58;;;;;;;4.95;100.00;92713.44;2131148;27;20369;-71
2022/11/05 01:01:43;;;;;;;1.50;1.40;;;;;;;5.15;100.00;92709.13;2127262;27;20483;-70
2022/11/05 01:02:44;;;;;;;1.63;1.48;;;;;;;5.22;100.00;92717.03;2125052;27;20058;-71
2022/11/05 01:03:45;;;;;;;1.35;1.23;;;;;;;5.19;100.00;92709.09;2126973;27;20018;-70
2022/11/05 01:04:46;;;;;;;3.47;2.33;;;;;;;5.15;100.00;92711.03;2131031;27;20365;-70
2022/11/05 01:05:53;;;;;;;4.30;1.85;;;;;;;5.12;100.00;92719.75;2131290;27;20117;-70
2022/11/05 01:06:54;;;;;;;1.40;1.25;;;;;;;5.12;100.00;92717.09;2130939;27;20113;-70
2022/11/05 01:07:55;;;;;;;1.55;1.40;;;;;;;5.02;100.00;92716.03;2130168;27;20033;-70
2022/11/05 01:08:56;;;;;;;2.83;1.50;;;;;;;5.00;100.00;92720.97;2130718;27;20089;-71
2022/11/05 01:09:57;;;;;;;2.85;1.65;;;;;;;5.15;100.00;92714.44;2130942;27;20042;-70
2022/11/05 01:10:58;;;;;;;1.45;1.35;;;;;;;5.06;100.00;92716.78;2121936;27;20051;-70
2022/11/05 01:11:59;;;;;;;1.85;1.20;;;;;;;5.03;100.00;92718.28;2121903;27;20111;-71
2022/11/05 01:13:00;;;;;;;1.88;1.50;;;;;;;5.01;100.00;92717.94;2129395;27;20026;-71
2022/11/05 01:14:10;;;;;;;2.47;1.42;;;;;;;4.93;100.00;92718.38;2130128;27;20188;-70
2022/11/05 01:15:11;;;;;;;1.60;1.50;;;;;;;4.94;100.00;92722.53;2126767;27;20026;-71
2022/11/05 01:16:12;;;;;;;1.95;1.50;;;;;;;4.95;100.00;92727.44;2130661;27;20055;-70
2022/11/05 01:17:13;;;;;;;3.55;1.52;;;;;;;4.97;100.00;92722.50;2129947;27;20834;-70
2022/11/05 01:18:14;;;;;;;1.88;1.48;;;;;;;4.92;100.00;92730.88;2130848;27;20042;-70
2022/11/05 01:19:15;;;;;;;2.13;1.70;;;;;;;5.01;100.00;92736.47;2130886;27;20105;-70
2022/11/05 01:20:16;;;;;;;2.03;1.25;;;;;;;4.98;100.00;92736.50;2130757;27;20071;-71
2022/11/05 01:21:16;;;;;;;1.60;1.40;;;;;;;5.00;100.00;92739.50;2130884;27;20058;-71
2022/11/05 01:22:18;;;;;;;1.60;1.27;;;;;;;4.99;100.00;92733.44;2130994;27;20023;-70
2022/11/05 01:23:18;;;;;;;3.67;1.42;;;;;;;5.01;100.00;92730.44;2130116;27;20437;-70
2022/11/05 01:24:19;;;;;;;1.60;1.35;;;;;;;4.97;100.00;92740.28;2131072;27;20015;-70
2022/11/05 01:25:20;;;;;;;1.85;1.45;;;;;;;4.97;100.00;92735.75;2130827;27;20033;-70
2022/11/05 01:26:21;;;;;;;2.45;1.30;;;;;;;4.97;100.00;92732.34;2131217;27;20031;-70
2022/11/05 01:27:22;;;;;;;1.80;1.30;;;;;;;5.14;100.00;92742.06;2130970;27;20018;-70
2022/11/05 01:28:23;;;;;;;1.67;1.40;;;;;;;5.11;100.00;92739.44;2130276;27;20023;-70
2022/11/05 01:29:24;;;;;;;2.53;1.42;;;;;;;5.02;100.00;92740.63;2130650;27;20026;-70
2022/11/05 01:30:25;;;;;;;2.22;1.45;;;;;;;5.01;100.00;92747.06;2130532;27;20026;-70
2022/11/05 01:31:27;;;;;;;3.00;1.38;;;;;;;5.00;100.00;92745.56;2130825;27;20075;-69
2022/11/05 01:32:28;;;;;;;1.50;1.33;;;;;;;5.01;100.00;92746.31;2130978;27;20030;-70
2022/11/05 01:33:29;;;;;;;3.15;1.30;;;;;;;5.07;100.00;92742.09;2129999;27;20026;-70
2022/11/05 01:34:30;;;;;;;1.65;1.35;;;;;;;5.07;100.00;92747.41;2130878;27;20027;-70
2022/11/05 01:35:31;;;;;;;1.60;1.35;;;;;;;5.02;100.00;92743.28;2130416;27;20030;-70
2022/11/05 01:36:32;;;;;;;1.25;1.15;;;;;;;4.99;100.00;92745.94;2130925;27;20101;-70
2022/11/05 01:37:34;;;;;;;4.18;1.63;;;;;;;5.09;100.00;92747.00;2130174;27;20139;-70
2022/11/05 01:38:35;;;;;;;4.68;1.27;;;;;;;5.09;100.00;92752.31;2130120;27;20027;-70
2022/11/05 01:39:36;;;;;;;1.40;1.30;;;;;;;5.13;100.00;92745.09;2130738;27;20026;-69
2022/11/05 01:40:41;;;;;;;1.90;1.40;;;;;;;5.11;100.00;92752.69;2130631;27;20034;-70
2022/11/05 01:41:42;;;;;;;1.40;1.30;;;;;;;5.09;100.00;92754.94;2122727;27;20042;-70
2022/11/05 01:42:44;;;;;;;2.08;1.50;;;;;;;5.13;100.00;92756.44;2121598;27;20065;-70
2022/11/05 01:43:54;;;;;;;1.33;1.20;;;;;;;5.15;100.00;92748.88;2120751;27;20465;-70
2022/11/05 01:45:06;;;;;;;1.52;1.38;;;;;;;5.20;100.00;92751.09;2130761;27;20034;-70
2022/11/05 01:46:07;;;;;;;1.90;1.27;;;;;;;5.18;100.00;92752.63;2121001;27;20031;-70
2022/11/05 01:47:24;;;;;;;1.17;1.10;;;;;;;5.11;100.00;92747.38;2121623;27;20035;-70
2022/11/05 01:48:34;;;;;;;3.80;1.35;;;;;;;5.11;100.00;92747.38;2119619;27;20027;-70
2022/11/05 01:49:36;;;;;;;2.40;1.40;;;;;;;5.14;100.00;92757.97;2122266;27;20034;-70
2022/11/05 01:50:56;;;;;;;1.75;1.30;;;;;;;5.15;100.00;92751.50;2130759;27;20049;-70
2022/11/05 01:52:00;;;;;;;3.20;1.20;;;;;;;5.12;100.00;92756.84;2128708;27;20421;-70
2022/11/05 01:53:17;;;;;;;2.95;1.10;;;;;;;5.13;100.00;92755.69;2130795;27;20113;-71
2022/11/05 01:54:24;;;;;;;1.30;1.20;;;;;;;5.14;100.00;92751.91;2126633;27;20440;-70
2022/11/05 01:55:30;;;;;;;2.80;1.30;;;;;;;5.14;100.00;92752.66;2130610;27;20026;-70
2022/11/05 01:56:45;;;;;;;2.33;1.63;;;;;;;5.13;100.00;92753.78;2130564;27;20042;-70
2022/11/05 01:57:46;;;;;;;1.95;1.60;;;;;;;5.09;100.00;92750.41;2127190;27;20067;-70
2022/11/05 01:58:53;;;;;;;1.70;1.42;;;;;;;5.10;100.00;92759.13;2130549;27;20113;-72
2022/11/05 01:59:58;;;;;;;3.25;1.30;;;;;;;5.07;100.00;92752.69;2129895;27;20061;-70
2022/11/05 02:00:59;;;;;;;4.50;1.42;;;;;;;5.10;100.00;92757.22;2130656;27;20539;-70
2022/11/05 02:02:02;;;;;;;1.38;1.23;;;;;;;5.03;100.00;92747.44;2130413;27;20094;-70
2022/11/05 02:03:03;;;;;;;1.48;1.30;;;;;;;5.05;100.00;92752.34;2130718;27;20027;-70
2022/11/05 02:04:09;;;;;;;1.98;1.30;;;;;;;5.07;100.00;92751.94;2130384;27;20025;-70
2022/11/05 02:05:13;;;;;;;1.60;1.48;;;;;;;5.05;100.00;92747.81;2129336;27;20023;-69
2022/11/05 02:06:17;;;;;;;1.65;1.40;;;;;;;5.05;100.00;92747.81;2130762;27;20364;-70
2022/11/05 02:07:19;;;;;;;3.45;1.48;;;;;;;5.05;100.00;92747.81;2130141;27;20029;-70
2022/11/05 02:08:43;;;;;;;1.40;1.30;;;;;;;5.10;100.00;92751.19;2130683;27;20031;-70
2022/11/05 02:09:52;;;;;;;1.95;1.40;;;;;;;5.02;100.00;92753.88;2125956;27;20406;-70
2022/11/05 02:10:54;;;;;;;2.42;1.70;;;;;;;5.08;100.00;92750.81;2130508;27;20034;-71
2022/11/05 02:11:55;;;;;;;2.33;1.50;;;;;;;5.14;100.00;92747.38;2130635;27;20618;-70
2022/11/05 02:12:56;;;;;;;2.00;1.77;;;;;;;5.20;100.00;92755.66;2120967;27;20031;-71
2022/11/05 02:13:57;;;;;;;3.50;1.40;;;;;;;5.17;100.00;92753.75;2121066;27;20110;-70
2022/11/05 02:16:23;;;;;;;;;;;;;;;5.13;100.00;92753.03;2145276;27;20550;-70
2022/11/05 02:17:47;;;;;;;1.60;1.30;;;;;;;5.11;100.00;92755.34;2128847;27;19921;-71
2022/11/05 02:19:04;;;;;;;2.25;1.40;;;;;;;5.08;100.00;92753.44;2129242;27;20026;-71
2022/11/05 02:20:29;;;;;;;2.00;1.48;;;;;;;5.12;100.00;92754.19;2137041;27;20030;-72
2022/11/05 02:21:36;;;;;;;3.22;2.38;;;;;;;5.14;100.00;92752.66;2136724;27;20046;-72
2022/11/05 02:23:00;;;;;;;3.40;1.40;;;;;;;5.11;100.00;92761.38;2138073;27;20038;-72
2022/11/05 02:24:19;;;;;;;1.98;1.45;;;;;;;5.07;100.00;92754.59;2136341;27;20467;-71
2022/11/05 02:25:26;;;;;;;2.50;1.42;;;;;;;5.06;100.00;92761.81;2134365;27;20034;-72
2022/11/05 02:27:00;;;;;;;2.63;1.50;;;;;;;5.10;100.00;92756.47;2138119;27;20030;-72
2022/11/05 02:28:42;;;;;;;3.85;1.38;;;;;;;5.12;100.00;92754.19;2133502;27;20023;-72
2022/11/05 02:30:02;;;;;;;1.77;1.35;;;;;;;5.13;100.00;92763.63;2134034;27;20071;-72
2022/11/05 02:31:12;;;;;;;1.98;1.65;;;;;;;5.14;100.00;92749.25;2135173;27;20022;-69
2022/11/05 02:32:13;;;;;;;;;;;;;;;5.18;100.00;92750.75;2125521;27;20086;-70
2022/11/05 02:33:26;;;;;;;1.75;1.58;;;;;;;5.32;100.00;92760.47;2128397;27;19915;-72
2022/11/05 02:35:01;;;;;;;1.50;1.40;;;;;;;5.49;100.00;92762.22;2135986;27;20034;-72
2022/11/05 02:36:05;;;;;;;6.00;1.88;;;;;;;5.39;100.00;92755.09;2136263;27;20470;-72
2022/11/05 02:37:34;;;;;;;1.60;1.50;;;;;;;5.32;100.00;92754.44;2137294;27;20026;-72
2022/11/05 02:38:54;;;;;;;1.63;1.30;;;;;;;5.25;100.00;92755.22;2137300;27;20029;-69
2022/11/05 02:40:12;;;;;;;2.95;1.67;;;;;;;5.25;100.00;92758.63;2135878;27;20054;-71
2022/11/05 02:41:40;;;;;;;2.88;1.60;;;;;;;5.25;100.00;92755.22;2124337;27;20046;-70
2022/11/05 02:42:44;;;;;;;2.80;1.30;;;;;;;5.26;100.00;92757.47;2124624;27;20031;-72
2022/11/05 02:44:06;;;;;;;1.92;1.35;;;;;;;5.27;100.00;92756.34;2128492;27;20061;-72
2022/11/05 02:45:34;;;;;;;2.00;1.50;;;;;;;5.25;100.00;92755.97;2128406;27;20042;-72
2022/11/05 02:46:45;;;;;;;2.22;1.33;;;;;;;5.22;100.00;92766.59;2131287;27;20026;-72
2022/11/05 02:47:54;;;;;;;1.70;1.30;;;;;;;5.27;100.00;92766.19;2133789;27;20034;-71
2022/11/05 02:49:24;;;;;;;3.20;1.35;;;;;;;5.30;100.00;92754.81;2137351;27;20035;-73
2022/11/05 02:50:35;;;;;;;1.92;1.15;;;;;;;5.26;100.00;92762.78;2135778;27;20146;-70
2022/11/05 02:51:36;;;;;;;1.65;1.42;;;;;;;5.22;100.00;92759.41;2137321;27;20031;-73
2022/11/05 02:53:06;;;;;;;2.90;1.80;;;;;;;5.26;100.00;92765.41;2137710;27;20030;-73
2022/11/05 02:54:24;;;;;;;1.67;1.42;;;;;;;5.24;100.00;92769.63;2137244;27;20872;-73
2022/11/05 02:55:25;;;;;;;1.35;1.25;;;;;;;5.24;100.00;92764.31;2135580;27;20384;-72
2022/11/05 02:56:31;;;;;;;3.65;1.58;;;;;;;5.21;100.00;92762.44;2137801;27;20026;-72
2022/11/05 02:57:35;;;;;;;2.58;1.48;;;;;;;5.24;100.00;92767.72;2137001;27;20105;-72
2022/11/05 02:58:36;;;;;;;2.08;1.88;;;;;;;5.25;100.00;92769.22;2137664;27;20025;-71
2022/11/05 02:59:37;;;;;;;4.32;1.23;;;;;;;5.24;100.00;92774.91;2137640;27;20049;-72
2022/11/05 03:00:56;;;;;;;4.05;1.52;;;;;;;5.54;100.00;92769.00;2137607;27;20038;-72
2022/11/05 03:01:59;;;;;;;1.45;1.35;;;;;;;5.43;100.00;92770.97;2135931;27;20034;-72
2022/11/05 03:03:01;;;;;;;1.90;1.70;;;;;;;5.53;100.00;92772.78;2137671;27;20138;-72
2022/11/05 03:04:06;;;;;;;2.97;1.40;;;;;;;5.43;100.00;92766.44;2137390;27;20033;-72
2022/11/05 03:05:07;;;;;;;3.05;1.65;;;;;;;5.40;100.00;92763.81;2137289;27;20032;-72
2022/11/05 03:06:46;;;;;;;16.23;1.70;;;;;;;5.35;100.00;92766.88;2128472;27;20392;-72
2022/11/05 03:07:55;;;;;;;4.22;1.60;;;;;;;5.35;100.00;92766.88;2132367;27;20114;-73
2022/11/05 03:09:02;;;;;;;1.60;1.50;;;;;;;5.37;100.00;92775.22;2137740;27;20102;-72
2022/11/05 03:10:44;;;;;;;2.83;1.42;;;;;;;5.29;100.00;92769.19;2137544;27;20042;-72
2022/11/05 03:12:20;;;;;;;1.40;1.30;;;;;;;5.34;100.00;92776.72;2102354;28;20115;-71
2022/11/05 03:13:39;;;;;;;1.65;1.50;;;;;;;5.33;100.00;92769.94;2101955;28;20028;-72
2022/11/05 03:15:00;;;;;;;1.30;1.20;;;;;;;5.35;100.00;92780.13;2136494;27;20771;-71
2022/11/05 03:16:38;;;;;;;1.90;1.58;;;;;;;5.35;100.00;92777.47;2135925;27;20438;-72
2022/11/05 03:18:05;;;;;;;1.67;1.58;;;;;;;5.33;100.00;92785.06;2136621;27;20143;-72
2022/11/05 03:19:19;;;;;;;1.60;1.40;;;;;;;5.46;100.00;92789.50;2110013;28;20438;-72
2022/11/05 03:20:42;;;;;;;2.28;1.38;;;;;;;5.37;100.00;92786.56;2134707;27;20443;-72
2022/11/05 03:21:43;;;;;;;2.67;1.30;;;;;;;5.30;100.00;92791.91;2133549;27;20110;-71
2022/11/05 03:22:53;;;;;;;2.45;2.05;;;;;;;5.26;100.00;92785.88;2136814;27;20346;-72
2022/11/05 03:23:57;;;;;;;;;;;;;;;5.32;100.00;92775.63;2137847;27;20534;-72
2022/11/05 03:25:05;;;;;;;1.42;1.33;;;;;;;5.36;100.00;92786.97;2137635;27;19914;-72
2022/11/05 03:26:22;;;;;;;5.07;1.52;;;;;;;5.47;100.00;92785.72;2128086;27;20103;-72
2022/11/05 03:27:30;;;;;;;3.63;1.40;;;;;;;5.50;100.00;92794.78;2128208;27;20063;-72
2022/11/05 03:28:34;;;;;;;1.52;1.30;;;;;;;5.46;100.00;92794.06;2131083;27;20019;-72
2022/11/05 03:29:41;;;;;;;2.35;1.40;;;;;;;5.56;100.00;92791.31;2131708;27;20030;-72
2022/11/05 03:30:43;;;;;;;1.30;1.20;;;;;;;5.60;100.00;92793.94;2127814;27;20038;-71
2022/11/05 03:31:48;;;;;;;3.88;1.20;;;;;;;5.49;100.00;92791.41;2131430;27;20049;-72
2022/11/05 03:32:55;;;;;;;3.45;1.20;;;;;;;5.40;100.00;92798.25;2131669;27;20372;-72
2022/11/05 03:33:59;;;;;;;1.95;1.48;;;;;;;5.31;100.00;92796.06;2129363;27;20368;-72
2022/11/05 03:35:06;;;;;;;3.45;1.40;;;;;;;5.29;100.00;92796.44;2131601;27;20030;-72
2022/11/05 03:36:12;;;;;;;2.20;1.38;;;;;;;5.26;100.00;92804.41;2131691;27;20130;-72
2022/11/05 03:37:17;;;;;;;4.20;1.60;;;;;;;5.41;100.00;92803.19;2126886;27;20377;-72
2022/11/05 03:38:23;;;;;;;2.67;1.30;;;;;;;5.33;100.00;92801.72;2129959;27;20405;-72
2022/11/05 03:39:30;;;;;;;1.58;1.48;;;;;;;5.27;100.00;92804.03;2129437;27;20034;-71
2022/11/05 03:40:35;;;;;;;3.00;1.30;;;;;;;5.28;100.00;92807.44;2131701;27;20488;-71
2022/11/05 03:41:42;;;;;;;3.30;1.83;;;;;;;5.25;100.00;92808.22;2131815;27;20042;-72
2022/11/05 03:42:48;;;;;;;5.10;1.60;;;;;;;5.24;100.00;92814.66;2127454;27;20030;-72
2022/11/05 03:43:57;;;;;;;2.47;1.40;;;;;;;5.22;100.00;92814.28;2130593;27;20341;-71
2022/11/05 03:45:04;;;;;;;3.08;1.50;;;;;;;5.26;100.00;92812.38;2131635;27;20054;-72
2022/11/05 03:46:19;;;;;;;2.22;1.20;;;;;;;5.23;100.00;92813.91;2131604;27;20031;-72
2022/11/05 03:47:24;;;;;;;2.83;1.40;;;;;;;5.17;100.00;92818.09;2128580;27;20019;-71
2022/11/05 03:48:29;;;;;;;4.30;1.30;;;;;;;5.22;100.00;92815.06;2131566;27;20026;-71
2022/11/05 03:49:37;;;;;;;2.83;1.50;;;;;;;5.23;100.00;92818.47;2130935;27;20108;-72
2022/11/05 03:50:45;;;;;;;1.85;1.30;;;;;;;5.17;100.00;92822.66;2131562;27;20030;-72
2022/11/05 03:51:54;;;;;;;1.40;1.30;;;;;;;5.22;100.00;92822.22;2127792;27;20512;-72
2022/11/05 03:53:18;;;;;;;1.35;1.23;;;;;;;5.20;100.00;92824.53;2131308;27;20072;-71
2022/11/05 03:54:20;;;;;;;2.40;1.23;;;;;;;5.22;100.00;92823.00;2116226;27;20528;-72
2022/11/05 03:55:28;;;;;;;4.43;1.30;;;;;;;5.23;100.00;92826.41;2131549;27;20038;-72
2022/11/05 03:56:36;;;;;;;1.48;1.38;;;;;;;5.18;100.00;92829.44;2131693;27;20047;-72
2022/11/05 03:57:40;;;;;;;1.83;1.73;;;;;;;5.22;100.00;92827.53;2131477;27;20045;-72
2022/11/05 03:58:44;;;;;;;2.38;1.35;;;;;;;5.22;100.00;92823.00;2127479;27;20026;-72
2022/11/05 03:59:47;;;;;;;3.92;1.50;;;;;;;5.21;100.00;92832.09;2130876;27;20139;-72
2022/11/05 04:00:49;;;;;;;3.53;1.27;;;;;;;5.23;100.00;92829.81;2131373;27;20034;-73
2022/11/05 04:01:52;;;;;;;2.55;1.60;;;;;;;5.18;100.00;92827.56;2131640;27;20052;-72
2022/11/05 04:02:54;;;;;;;2.13;1.20;;;;;;;5.18;100.00;92822.28;2131583;27;20035;-72
2022/11/05 04:03:55;;;;;;;3.42;1.50;;;;;;;5.18;100.00;92818.84;2131269;27;20030;-72
2022/11/05 04:04:57;;;;;;;5.65;1.60;;;;;;;5.18;100.00;92826.78;2130984;27;20425;-72
2022/11/05 04:13:56;;;;;;;1.30;1.17;;;;;;;5.21;100.00;92821.47;2124639;27;20031;-72
2022/11/05 04:14:57;;;;;;;1.83;1.05;;;;;;;5.25;100.00;92821.47;2130457;27;20022;-72
2022/11/05 04:17:18;;;;;;;0.90;0.90;;;;;;;5.22;100.00;92832.84;2124089;27;20027;-71
2022/11/05 04:18:19;;;;;;;1.05;0.95;;;;;;;5.30;100.00;92837.69;2131388;27;20062;-72
2022/11/05 04:24:07;;;;;;;1.30;1.20;;;;;;;5.28;100.00;92834.69;2130982;27;20078;-72
2022/11/05 04:24:39;;;;;;;3.47;1.40;;;;;;;5.30;100.00;92836.94;2130988;27;20038;-72
2022/11/05 04:25:40;;;;;;;1.17;1.08;;;;;;;5.25;100.00;92842.66;2128671;27;20484;-72
2022/11/05 04:26:42;;;;;;;1.73;1.30;;;;;;;5.22;100.00;92844.22;2131414;27;20035;-71
2022/11/05 04:27:44;;;;;;;1.42;1.27;;;;;;;5.46;100.00;92842.53;2123260;27;20035;-72
2022/11/05 04:30:17;;;;;;;3.40;1.30;;;;;;;5.58;100.00;92853.81;2130925;27;20379;-72
2022/11/05 04:31:18;;;;;;;1.25;1.15;;;;;;;5.50;100.00;92847.81;2123859;27;20062;-72
2022/11/05 04:32:19;;;;;;;1.63;1.20;;;;;;;5.34;100.00;92856.22;2131306;27;20468;-72
2022/11/05 04:33:20;;;;;;;2.85;1.20;;;;;;;5.29;100.00;92859.28;2121748;27;20031;-71
2022/11/05 04:34:21;;;;;;;2.13;1.38;;;;;;;5.29;100.00;92859.28;2121960;27;20465;-72
2022/11/05 04:35:22;;;;;;;2.40;1.48;;;;;;;5.20;100.00;92865.03;2130266;27;20022;-72
2022/11/05 04:36:23;;;;;;;4.07;1.27;;;;;;;5.17;100.00;92857.09;2128711;27;20027;-72
2022/11/05 04:37:24;;;;;;;2.45;1.35;;;;;;;5.40;100.00;92859.22;2130845;27;20037;-72
2022/11/05 04:38:25;;;;;;;2.85;1.38;;;;;;;5.32;100.00;92861.19;2130626;27;20043;-71
2022/11/05 04:39:26;;;;;;;1.83;1.25;;;;;;;5.46;100.00;92857.69;2130223;27;20029;-72
2022/11/05 04:40:27;;;;;;;1.40;1.30;;;;;;;5.43;100.00;92861.84;2130886;27;20101;-72
2022/11/05 04:41:28;;;;;;;2.92;1.30;;;;;;;5.41;100.00;92866.03;2130526;27;20027;-72
2022/11/05 04:42:29;;;;;;;1.42;0.90;;;;;;;5.46;100.00;92863.72;2131221;27;20444;-71
2022/11/05 04:43:30;;;;;;;1.52;1.20;;;;;;;5.34;100.00;92872.13;2130941;27;20039;-72
2022/11/05 04:44:31;;;;;;;3.55;1.10;;;;;;;5.25;100.00;92869.91;2131259;27;20022;-72
2022/11/05 04:45:34;;;;;;;1.55;1.30;;;;;;;5.22;100.00;92877.88;2130993;27;20425;-72
2022/11/05 04:46:35;;;;;;;1.90;1.10;;;;;;;5.10;100.00;92870.38;2130628;27;20029;-71
2022/11/05 04:47:36;;;;;;;1.70;0.93;;;;;;;5.07;100.00;92869.25;2131113;27;20049;-72
2022/11/05 04:48:37;;;;;;;1.95;1.08;;;;;;;5.30;100.00;92872.16;2131252;27;20069;-72
2022/11/05 04:49:38;;;;;;;1.30;1.20;;;;;;;5.22;100.00;92869.94;2130968;27;20035;-71
2022/11/05 04:50:39;;;;;;;3.22;0.88;;;;;;;5.38;100.00;92872.13;2130714;27;20521;-72
2022/11/05 04:51:40;;;;;;;0.93;0.80;;;;;;;5.37;100.00;92875.91;2119797;27;20508;-72
2022/11/05 04:52:41;;;;;;;1.77;1.00;;;;;;;5.27;100.00;92872.19;2122014;27;20453;-71
2022/11/05 04:53:42;;;;;;;0.80;0.80;;;;;;;5.28;100.00;92879.00;2130743;27;20101;-73
2022/11/05 04:54:43;;;;;;;0.60;0.60;;;;;;;5.26;100.00;92873.31;2130975;27;20025;-72
2022/11/05 04:55:44;;;;;;;0.95;0.70;;;;;;;5.24;100.00;92875.59;2130681;27;20354;-72
2022/11/05 04:56:45;;;;;;;0.90;0.82;;;;;;;5.15;100.00;92870.72;2130230;27;20027;-74
2022/11/05 04:57:48;;;;;;;0.93;0.70;;;;;;;5.08;100.00;92885.91;2131058;27;20110;-72
2022/11/05 04:58:49;;;;;;;0.70;0.70;;;;;;;5.19;100.00;92881.31;2131056;27;20037;-74
2022/11/05 04:59:51;;;;;;;0.60;0.60;;;;;;;5.15;100.00;92883.22;2131187;27;20041;-71
2022/11/05 05:00:51;;;;;;;2.90;0.70;;;;;;;5.23;100.00;92884.69;2130780;27;20460;-72
2022/11/05 05:01:52;;;;;;;0.57;0.55;;;;;;;5.22;100.00;92885.81;2130262;27;20041;-73
2022/11/05 05:02:53;;;;;;;0.93;0.40;;;;;;;5.11;100.00;92891.19;2130871;27;20030;-71
2022/11/05 05:03:54;;;;;;;1.92;0.55;;;;;;;5.04;100.00;92888.56;2130753;27;20073;-71
2022/11/05 05:04:55;;;;;;;0.50;0.50;;;;;;;4.89;100.00;92892.44;2130997;27;20030;-74
2022/11/05 05:05:59;;;;;;;1.17;0.40;;;;;;;4.83;100.00;92896.59;2130986;27;20414;-74
2022/11/05 05:07:00;;;;;;;0.50;0.50;;;;;;;4.80;100.00;92890.19;2130758;27;20034;-73
2022/11/05 05:08:03;;;;;;;1.42;0.50;;;;;;;4.89;100.00;92895.81;2130204;27;20715;-72
2022/11/05 05:09:05;;;;;;;1.85;0.70;;;;;;;4.88;100.00;92899.63;2130040;27;20046;-72
2022/11/05 05:10:07;;;;;;;0.80;0.50;;;;;;;4.76;100.00;92892.84;2130673;27;20155;-72
2022/11/05 05:11:11;;;;;;;0.75;0.50;;;;;;;5.00;100.00;92895.78;2131060;27;20402;-71
2022/11/05 05:12:14;;;;;;;1.55;0.93;;;;;;;4.89;100.00;92901.13;2126718;27;20031;-73
2022/11/05 05:13:15;;;;;;;0.63;0.40;;;;;;;4.85;100.00;92905.66;2130026;27;20026;-71
2022/11/05 05:14:16;;;;;;;0.50;0.50;;;;;;;4.83;100.00;92894.72;2130985;27;20079;-72
2022/11/05 05:15:17;;;;;;;0.22;0.22;;;;;;;4.70;100.00;92897.03;2130970;27;20461;-73
2022/11/05 05:16:25;;;;;;;0.35;0.30;;;;;;;4.65;100.00;92909.88;2130974;27;20043;-74
2022/11/05 05:17:26;;;;;;;1.23;0.30;;;;;;;4.69;100.00;92903.44;2130851;27;20117;-73
2022/11/05 05:18:27;;;;;;;0.30;0.30;;;;;;;4.70;100.00;92904.22;2117366;27;20027;-72
2022/11/05 05:19:28;;;;;;;0.50;0.32;;;;;;;4.80;100.00;92911.38;2120379;27;20072;-73
2022/11/05 05:21:49;;;;;;;0.47;0.47;;;;;;;4.57;100.00;92913.72;2114342;27;20036;-73
2022/11/05 05:22:52;;;;;;;0.40;0.40;;;;;;;4.66;100.00;92908.78;2124440;27;20115;-72
2022/11/05 05:23:53;;;;;;;1.13;0.25;;;;;;;4.63;100.00;92901.59;2129938;27;20034;-72
2022/11/05 05:24:55;;;;;;;0.73;0.30;;;;;;;4.80;100.00;92908.72;2130710;27;20025;-73
2022/11/05 05:25:59;;;;;;;0.40;0.40;;;;;;;4.60;100.00;92905.00;2130642;27;20026;-73
2022/11/05 05:27:00;;;;;;;0.35;0.30;;;;;;;4.52;100.00;92907.69;2130835;27;20030;-73
2022/11/05 05:28:01;;;;;;;0.30;0.30;;;;;;;4.52;100.00;92915.63;2130615;27;20046;-72
2022/11/05 05:29:03;;;;;;;0.38;0.38;;;;;;;4.55;100.00;92914.84;2130158;27;20079;-73
2022/11/05 05:30:04;;;;;;;0.20;0.20;;;;;;;4.71;100.00;92924.25;2130782;27;20022;-71
2022/11/05 05:31:05;;;;;;;0.40;0.40;;;;;;;4.69;100.00;92915.94;2130325;27;20031;-71
2022/11/05 05:32:06;;;;;;;0.30;0.20;;;;;;;4.54;100.00;92920.53;2130647;27;20171;-72
2022/11/05 05:33:07;;;;;;;0.28;0.28;;;;;;;4.57;100.00;92916.38;2130543;27;20576;-71
2022/11/05 05:34:13;;;;;;;0.85;0.40;;;;;;;4.50;100.00;92917.88;2129091;27;20030;-73
2022/11/05 05:35:14;;;;;;;1.08;0.40;;;;;;;4.46;100.00;92919.78;2127063;27;20046;-73
2022/11/05 05:36:15;;;;;;;0.30;0.30;;;;;;;4.46;100.00;92921.66;2130611;27;20369;-72
2022/11/05 05:37:17;;;;;;;0.65;0.40;;;;;;;4.42;100.00;92921.66;2130033;27;20031;-72
2022/11/05 05:38:18;;;;;;;0.70;0.40;;;;;;;4.47;100.00;92926.56;2130346;27;20019;-71
2022/11/05 05:39:18;;;;;;;1.38;0.30;;;;;;;4.45;100.00;92936.03;2129869;27;20030;-71
2022/11/05 05:40:19;;;;;;;1.30;0.40;;;;;;;4.49;100.00;92928.84;2121409;27;20480;-72
2022/11/05 05:41:20;;;;;;;0.93;0.30;;;;;;;4.35;100.00;92924.34;2121663;27;20122;-71
2022/11/05 05:42:21;;;;;;;0.30;0.20;;;;;;;4.23;100.00;92925.47;2130871;27;20025;-71
2022/11/05 05:43:22;;;;;;;2.17;0.22;;;;;;;4.16;100.00;92922.06;2130105;27;20023;-72
2022/11/05 05:44:23;;;;;;;4.78;0.50;;;;;;;4.19;100.00;92914.16;2120825;27;20445;-71
2022/11/05 05:45:24;;;;;;;0.55;0.30;;;;;;;4.21;100.00;92919.78;2121371;27;20027;-71
2022/11/05 05:46:25;;;;;;;1.58;0.40;;;;;;;4.26;100.00;92916.78;2130760;27;20071;-72
2022/11/05 05:47:26;;;;;;;2.50;0.50;;;;;;;4.21;100.00;92926.97;2130818;27;20378;-70
2022/11/05 05:48:27;;;;;;;0.55;0.47;;;;;;;4.22;100.00;92920.56;2121031;27;20601;-71
2022/11/05 05:49:28;;;;;;;3.35;0.32;;;;;;;4.12;100.00;92914.13;2120678;27;20062;-71
2022/11/05 05:50:29;;;;;;;0.63;0.38;;;;;;;4.17;100.00;92916.44;2130453;27;20027;-72
2022/11/05 05:51:30;;;;;;;1.17;0.40;;;;;;;4.17;100.00;92919.06;2130534;27;20050;-71